CheckWX is a tool to help pilots better visualize weather data.  It is not intended as a substitute for an official pre-flight weather briefing.

14:20:32 UTC

KCMH TAF
John Glenn Columbus International Airport
Columbus, Ohio, USA
KCMH 221120Z 2212/2312 22010KT P6SM SCT018 BKN090 TEMPO 2212/2213 BKN018 OVC090 FM221400 23014G22KT P6SM SCT035 FM221600 25017G28KT P6SM BKN050 FM230000 24011G18KT P6SM SCT050 FM230600 22010KT P6SM SKC

Oct-22@
12:00 UTC

Oct-22 @ 12:00 UTC

Oct-22@
14:00 UTC

Oct-22 @ 14:00 UTC

KCMH 221120Z 2212/2312 22010KT P6SM SCT018 BKN090

Expired

Wind
  • 220° at 10 KTS
Cloud Levels
  • Scattered at 1,800' AGL
  • Broken at 9,000' AGL

Oct-22@
12:00 UTC

Oct-22 @ 12:00 UTC

Oct-22@
13:00 UTC

Oct-22 @ 13:00 UTC

TEMPO 2212/2213 BKN018 OVC090

Expired

Cloud Levels
  • Broken at 1,800' AGL
  • Overcast at 9,000' AGL

Oct-22@
14:00 UTC

Oct-22 @ 14:00 UTC

Oct-22@
16:00 UTC

Oct-22 @ 16:00 UTC

FM221400 23014G22KT P6SM SCT035

From

From Standard forecast or significant change

Wind
  • 230° at 14 KTS
  • {Gusting to 22 KTS
Cloud Levels
  • Scattered at 3,500' AGL

Oct-22@
16:00 UTC

Oct-22 @ 16:00 UTC

Oct-23@
00:00 UTC

Oct-23 @ 00:00 UTC

FM221600 25017G28KT P6SM BKN050

From

From Standard forecast or significant change

Wind
  • 250° at 17 KTS
  • {Gusting to 28 KTS
Cloud Levels
  • Broken at 5,000' AGL

Oct-23@
00:00 UTC

Oct-23 @ 00:00 UTC

Oct-23@
06:00 UTC

Oct-23 @ 06:00 UTC

FM230000 24011G18KT P6SM SCT050

From

From Standard forecast or significant change

Wind
  • 240° at 11 KTS
  • {Gusting to 18 KTS
Cloud Levels
  • Scattered at 5,000' AGL

Oct-23@
06:00 UTC

Oct-23 @ 06:00 UTC

Oct-23@
12:00 UTC

Oct-23 @ 12:00 UTC

FM230600 22010KT P6SM SKC

From

From Standard forecast or significant change

Wind
  • 220° at 10 KTS
Cloud Levels
  • Clear skies